Time;durP1;ratioP1;P1;durP2;ratioP2;P2;SDS_P1;SDS_P2;PMS_P1;PMS_P2;Temp;Humidity;BMP_temperature;BMP_pressure;BME280_temperature;BME280_humidity;BME280_pressure;Samples;Min_cycle;Max_cycle;Signal;HPM_P1;HPM_P2
2021/01/30 00:00:16;;;;;;;89.75;48.00;;;;;;;-2.16;100.00;96934.34;2095642;28;20704;-74
2021/01/30 00:01:17;;;;;;;88.40;49.08;;;;;;;-2.21;100.00;96926.50;2096202;28;20226;-73
2021/01/30 00:02:18;;;;;;;96.00;49.97;;;;;;;-2.32;100.00;96904.88;2095704;28;20228;-73
2021/01/30 00:03:19;;;;;;;92.50;48.97;;;;;;;-2.15;100.00;96933.28;2096093;28;20232;-73
2021/01/30 00:04:20;;;;;;;91.80;48.85;;;;;;;-2.14;100.00;96943.47;2096034;28;20230;-72
2021/01/30 00:05:21;;;;;;;87.13;47.87;;;;;;;-2.09;100.00;96934.81;2096115;28;20309;-73
2021/01/30 00:06:23;;;;;;;92.55;47.90;;;;;;;-2.06;100.00;96944.75;2095488;28;20234;-74
2021/01/30 00:07:24;;;;;;;93.32;47.78;;;;;;;-2.12;100.00;96941.34;2095947;28;20712;-73
2021/01/30 00:08:25;;;;;;;88.50;46.90;;;;;;;-2.13;100.00;96936.41;2096859;28;20571;-73
2021/01/30 00:09:26;;;;;;;88.72;45.33;;;;;;;-2.20;100.00;96941.91;2096850;28;20245;-74
2021/01/30 00:10:28;;;;;;;91.20;46.75;;;;;;;-2.17;100.00;96948.41;2096173;28;20234;-73
2021/01/30 00:11:30;;;;;;;88.50;46.97;;;;;;;-2.19;100.00;96940.06;2095923;28;20274;-73
2021/01/30 00:12:31;;;;;;;87.47;47.58;;;;;;;-2.09;100.00;96943.44;2095966;28;20234;-73
2021/01/30 00:13:32;;;;;;;87.25;47.97;;;;;;;-2.12;100.00;96940.56;2096092;28;20297;-73
2021/01/30 00:14:35;;;;;;;89.17;46.70;;;;;;;-2.11;100.00;96955.19;2095633;28;20222;-73
2021/01/30 00:15:36;;;;;;;88.05;47.15;;;;;;;-2.18;100.00;96944.25;2096259;28;20312;-73
2021/01/30 00:16:37;;;;;;;82.03;45.95;;;;;;;-2.17;100.00;96945.81;2095528;28;20225;-73
2021/01/30 00:17:38;;;;;;;89.72;46.42;;;;;;;-2.18;100.00;96937.19;2096165;28;20692;-74
2021/01/30 00:18:39;;;;;;;84.13;45.57;;;;;;;-2.15;100.00;96951.56;2096896;28;20621;-73
2021/01/30 00:19:43;;;;;;;86.32;46.22;;;;;;;-2.22;100.00;96938.78;2096824;28;20313;-73
2021/01/30 00:20:45;;;;;;;81.70;44.35;;;;;;;-2.27;100.00;96923.91;2095923;28;20279;-72
2021/01/30 00:21:49;;;;;;;87.45;46.10;;;;;;;-2.24;100.00;96940.09;2087324;28;20279;-73
2021/01/30 00:22:51;;;;;;;84.45;45.47;;;;;;;-2.27;100.00;96933.56;2088182;28;20222;-74
2021/01/30 00:23:52;;;;;;;93.57;47.28;;;;;;;-2.24;100.00;96942.72;2095917;28;20694;-75
2021/01/30 00:24:53;;;;;;;82.93;46.43;;;;;;;-2.36;100.00;96924.72;2096744;28;20214;-73
2021/01/30 00:25:54;;;;;;;80.85;44.95;;;;;;;-2.34;100.00;96922.63;2095947;28;20213;-73
2021/01/30 00:26:58;;;;;;;86.13;44.80;;;;;;;-2.22;100.00;96928.34;2087588;28;20309;-73
2021/01/30 00:27:59;;;;;;;86.90;44.20;;;;;;;-2.25;100.00;96923.66;2087742;28;20218;-72
2021/01/30 00:29:00;;;;;;;85.57;44.85;;;;;;;-2.25;100.00;96939.31;2095671;28;20643;-73
2021/01/30 00:30:01;;;;;;;79.85;43.75;;;;;;;-2.26;100.00;96929.91;2095945;28;20296;-73
2021/01/30 00:31:03;;;;;;;83.85;46.22;;;;;;;-2.32;100.00;96929.16;2087627;28;20223;-73
2021/01/30 00:32:04;;;;;;;86.53;45.63;;;;;;;-2.45;100.00;96906.19;2096012;28;20312;-73
2021/01/30 00:33:06;;;;;;;86.88;45.92;;;;;;;-2.39;100.00;96920.03;2096619;28;20249;-73
2021/01/30 00:34:07;;;;;;;88.32;46.83;;;;;;;-2.36;100.00;96933.31;2104390;28;20221;-73
2021/01/30 00:35:10;;;;;;;81.30;44.87;;;;;;;-2.32;100.00;96928.38;2095505;28;20317;-74
2021/01/30 00:36:12;;;;;;;85.25;43.92;;;;;;;-2.36;100.00;96920.25;2095929;28;20273;-73
2021/01/30 00:37:15;;;;;;;86.40;45.05;;;;;;;-2.27;100.00;96944.00;2095452;28;20222;-73
2021/01/30 00:38:16;;;;;;;78.15;43.50;;;;;;;-2.25;100.00;96944.53;2087994;28;20238;-73
2021/01/30 00:39:17;;;;;;;81.43;43.13;;;;;;;-2.30;100.00;96934.09;2095994;28;20310;-73
2021/01/30 00:40:19;;;;;;;78.22;42.88;;;;;;;-2.34;100.00;96939.09;2095523;28;20736;-73
2021/01/30 00:41:20;;;;;;;79.10;42.30;;;;;;;-2.35;100.00;96947.16;2095963;28;20249;-73
2021/01/30 00:42:25;;;;;;;71.60;39.78;;;;;;;-2.37;100.00;96944.03;2095587;28;20230;-76
2021/01/30 00:43:26;;;;;;;80.72;44.42;;;;;;;-2.39;100.00;96946.13;2088196;28;20277;-73
2021/01/30 00:44:29;;;;;;;73.50;40.90;;;;;;;-2.34;100.00;96949.53;2095950;28;20259;-73
2021/01/30 00:45:31;;;;;;;78.15;40.65;;;;;;;-2.30;100.00;96955.00;2095583;28;20238;-73
2021/01/30 00:46:32;;;;;;;74.38;42.35;;;;;;;-2.34;100.00;96943.53;2096044;28;20218;-72
2021/01/30 00:47:33;;;;;;;73.70;39.60;;;;;;;-2.29;100.00;96952.09;2095593;28;20688;-73
2021/01/30 00:48:34;;;;;;;73.43;41.80;;;;;;;-2.33;100.00;96961.53;2087819;28;20795;-73
2021/01/30 00:49:42;;;;;;;70.97;41.57;;;;;;;-2.33;100.00;96945.88;2087689;28;20573;-72
2021/01/30 00:50:43;;;;;;;73.70;42.20;;;;;;;-2.33;100.00;96956.31;2088184;28;20214;-73
2021/01/30 00:51:44;;;;;;;70.25;39.05;;;;;;;-2.31;100.00;96964.66;2087525;28;20345;-73
2021/01/30 00:52:47;;;;;;;82.15;42.00;;;;;;;-2.30;100.00;96955.78;2087626;28;20218;-72
2021/01/30 00:53:53;;;;;;;71.03;40.17;;;;;;;-2.33;100.00;96950.31;2088134;28;20222;-73
2021/01/30 00:54:55;;;;;;;74.88;38.72;;;;;;;-2.33;100.00;96956.31;2087572;28;20223;-73
2021/01/30 00:55:56;;;;;;;76.25;38.63;;;;;;;-2.26;100.00;96961.22;2087707;28;20223;-72
2021/01/30 00:56:58;;;;;;;68.82;38.85;;;;;;;-2.46;100.00;96943.78;2087696;28;20226;-73
2021/01/30 00:58:02;;;;;;;70.18;39.42;;;;;;;-2.36;100.00;96961.25;2088094;28;20219;-72
2021/01/30 00:59:07;;;;;;;70.43;39.17;;;;;;;-2.37;100.00;96960.47;2095720;28;20287;-74
2021/01/30 01:00:12;;;;;;;68.82;39.20;;;;;;;-2.39;100.00;96957.34;2095759;28;20222;-72
2021/01/30 01:01:14;;;;;;;68.50;39.40;;;;;;;-2.41;100.00;96953.47;2088113;28;20226;-72
2021/01/30 01:02:17;;;;;;;70.05;39.30;;;;;;;-2.38;100.00;96955.53;2087897;28;20686;-72
2021/01/30 01:03:20;;;;;;;72.55;39.72;;;;;;;-2.37;100.00;96954.47;2096128;28;20698;-72
2021/01/30 01:04:37;;;;;;;73.68;39.85;;;;;;;-2.40;100.00;96949.78;2094674;28;20244;-73
2021/01/30 01:05:38;;;;;;;77.57;41.08;;;;;;;-2.43;100.00;96945.88;2087762;28;20231;-72
2021/01/30 01:06:40;;;;;;;73.55;41.55;;;;;;;-2.34;100.00;96948.75;2095909;28;20229;-72
2021/01/30 01:07:42;;;;;;;71.65;39.78;;;;;;;-2.37;100.00;96944.81;2104800;28;20304;-72
2021/01/30 01:08:43;;;;;;;74.78;39.97;;;;;;;-2.33;100.00;96950.31;2095359;28;20283;-72
2021/01/30 01:09:44;;;;;;;73.25;40.92;;;;;;;-2.37;100.00;96950.03;2095895;28;20332;-72
2021/01/30 01:10:49;;;;;;;74.30;41.27;;;;;;;-2.37;100.00;96954.47;2104701;28;20271;-72
2021/01/30 01:11:51;;;;;;;70.90;42.90;;;;;;;-2.35;100.00;96958.38;2104649;28;20222;-72
2021/01/30 01:12:52;;;;;;;76.72;42.45;;;;;;;-2.35;100.00;96947.94;2104819;28;20221;-72
2021/01/30 01:13:54;;;;;;;73.93;42.25;;;;;;;-2.41;100.00;96945.63;2104410;28;20676;-72
2021/01/30 01:14:55;;;;;;;70.47;40.67;;;;;;;-2.40;100.00;96947.97;2104767;28;20217;-73
2021/01/30 01:15:56;;;;;;;73.78;42.55;;;;;;;-2.36;100.00;96948.22;2104841;28;20797;-72
2021/01/30 01:16:57;;;;;;;76.63;41.80;;;;;;;-2.30;100.00;96947.16;2104743;28;20245;-72
2021/01/30 01:17:59;;;;;;;67.82;38.97;;;;;;;-2.32;100.00;96947.44;2095881;28;20218;-72
2021/01/30 01:19:00;;;;;;;75.07;39.78;;;;;;;-2.38;100.00;96942.47;2096074;28;20264;-72
2021/01/30 01:20:01;;;;;;;74.68;41.08;;;;;;;-2.35;100.00;96945.31;2096963;28;20234;-72
2021/01/30 01:21:02;;;;;;;68.55;40.63;;;;;;;-2.35;100.00;96941.94;2097410;28;20249;-72
2021/01/30 01:22:04;;;;;;;71.97;41.10;;;;;;;-2.38;100.00;96938.03;2097280;28;20222;-72
2021/01/30 01:23:05;;;;;;;76.15;42.03;;;;;;;-2.36;100.00;96940.38;2089030;28;20298;-73
2021/01/30 01:24:07;;;;;;;69.63;39.87;;;;;;;-2.40;100.00;96937.53;2097324;28;20221;-72
2021/01/30 01:25:08;;;;;;;80.30;42.03;;;;;;;-2.38;100.00;96939.84;2105927;28;20301;-74
2021/01/30 01:26:10;;;;;;;73.75;41.05;;;;;;;-2.38;100.00;96943.25;2097142;28;20231;-73
2021/01/30 01:27:11;;;;;;;79.65;43.88;;;;;;;-2.37;100.00;96944.81;2097426;28;20226;-72
2021/01/30 01:28:12;;;;;;;74.97;43.00;;;;;;;-2.38;100.00;96937.25;2096551;28;20644;-73
2021/01/30 01:29:15;;;;;;;82.88;42.97;;;;;;;-2.36;100.00;96949.00;2089026;28;20227;-72
2021/01/30 01:30:18;;;;;;;76.78;43.30;;;;;;;-2.37;100.00;96939.59;2089550;28;20289;-73
2021/01/30 01:31:20;;;;;;;80.18;43.10;;;;;;;-2.40;100.00;96931.53;2089011;28;20235;-72
2021/01/30 01:32:24;;;;;;;77.50;42.33;;;;;;;-2.35;100.00;96937.50;2097606;28;20214;-72
2021/01/30 01:33:24;;;;;;;76.57;43.45;;;;;;;-2.31;100.00;96929.94;2096747;28;20329;-72
2021/01/30 01:34:28;;;;;;;80.43;42.37;;;;;;;-2.29;100.00;96930.44;2097359;28;20236;-72
2021/01/30 01:35:30;;;;;;;78.63;43.13;;;;;;;-2.34;100.00;96920.81;2106305;28;20223;-72
2021/01/30 01:36:32;;;;;;;76.15;39.88;;;;;;;-2.22;100.00;96930.16;2106228;28;20210;-72
2021/01/30 01:37:33;;;;;;;72.43;41.22;;;;;;;-2.23;100.00;96933.81;2106124;28;20779;-72
2021/01/30 01:38:34;;;;;;;71.10;40.23;;;;;;;-2.27;100.00;96938.78;2106327;28;20610;-72
2021/01/30 01:39:35;;;;;;;74.25;42.30;;;;;;;-2.23;100.00;96939.84;2097110;28;20680;-73
2021/01/30 01:40:39;;;;;;;80.07;42.73;;;;;;;-2.21;100.00;96940.34;2097294;28;20562;-72
2021/01/30 01:41:39;;;;;;;76.85;41.75;;;;;;;-2.23;100.00;96946.88;2097427;28;20805;-72
2021/01/30 01:42:41;;;;;;;79.90;43.43;;;;;;;-2.27;100.00;96933.56;2097934;28;20241;-73
2021/01/30 01:43:42;;;;;;;75.75;41.85;;;;;;;-2.34;100.00;96933.88;2097127;28;20259;-72
2021/01/30 01:44:44;;;;;;;79.83;43.47;;;;;;;-2.39;100.00;96931.25;2088865;28;20234;-72
2021/01/30 01:45:52;;;;;;;82.28;44.03;;;;;;;-2.34;100.00;96943.53;2097146;28;20222;-72
2021/01/30 01:46:54;;;;;;;81.88;45.42;;;;;;;-2.32;100.00;96936.19;2099343;28;20275;-73
2021/01/30 01:47:55;;;;;;;83.38;45.42;;;;;;;-2.32;100.00;96936.97;2096700;28;20564;-72
2021/01/30 01:49:00;;;;;;;80.72;44.55;;;;;;;-2.33;100.00;96932.81;2097068;28;20344;-72
2021/01/30 01:50:06;;;;;;;87.88;45.45;;;;;;;-2.33;100.00;96930.19;2104999;28;20297;-72
2021/01/30 01:51:09;;;;;;;89.95;45.53;;;;;;;-2.29;100.00;96926.00;2097441;28;20231;-73
2021/01/30 01:52:21;;;;;;;82.88;44.78;;;;;;;-2.42;100.00;96918.72;2097838;28;20309;-72
2021/01/30 01:53:27;;;;;;;89.15;46.58;;;;;;;-2.33;100.00;96935.41;2097193;28;20257;-73
2021/01/30 01:54:29;;;;;;;82.45;45.72;;;;;;;-2.32;100.00;96934.38;2097869;28;20304;-72
2021/01/30 01:55:30;;;;;;;80.40;44.95;;;;;;;-2.36;100.00;96924.72;2097964;28;20275;-72
2021/01/30 01:56:34;;;;;;;85.45;44.35;;;;;;;-2.31;100.00;96933.31;2097081;28;20297;-72
2021/01/30 01:57:36;;;;;;;86.72;45.55;;;;;;;-2.40;100.00;96919.25;2096806;28;20228;-73
2021/01/30 01:58:41;;;;;;;81.53;45.78;;;;;;;-2.31;100.00;96929.94;2104891;28;20225;-73
2021/01/30 01:59:46;;;;;;;87.53;46.38;;;;;;;-2.24;100.00;96927.03;2105876;28;20229;-72
2021/01/30 02:00:48;;;;;;;86.80;47.20;;;;;;;-2.27;100.00;96929.13;2096617;28;20242;-72
2021/01/30 02:01:51;;;;;;;85.30;45.50;;;;;;;-2.27;100.00;96923.91;2088983;28;20697;-72
2021/01/30 02:02:54;;;;;;;88.20;45.58;;;;;;;-2.28;100.00;96924.16;2096860;28;20657;-74
2021/01/30 02:03:57;;;;;;;82.38;45.05;;;;;;;-2.23;100.00;96926.00;2097228;28;20226;-72
2021/01/30 02:05:03;;;;;;;91.90;47.38;;;;;;;-2.30;100.00;96914.00;2097425;28;20233;-73
2021/01/30 02:06:05;;;;;;;86.88;45.00;;;;;;;-2.27;100.00;96913.44;2105920;28;20240;-73
2021/01/30 02:07:06;;;;;;;82.55;46.75;;;;;;;-2.29;100.00;96920.00;2105772;28;20241;-73
2021/01/30 02:08:08;;;;;;;90.00;47.03;;;;;;;-2.19;100.00;96919.19;2094685;28;20630;-75
2021/01/30 02:09:12;;;;;;;80.78;44.58;;;;;;;-2.21;100.00;96913.44;2088485;28;20314;-72
2021/01/30 02:10:16;;;;;;;88.47;46.65;;;;;;;-2.24;100.00;96914.75;2097557;28;20229;-72
2021/01/30 02:11:17;;;;;;;82.22;46.13;;;;;;;-2.19;100.00;96916.56;2105509;28;20244;-73
2021/01/30 02:12:18;;;;;;;85.05;46.33;;;;;;;-2.19;100.00;96919.19;2096840;28;20724;-72
2021/01/30 02:13:22;;;;;;;86.35;46.53;;;;;;;-2.20;100.00;96920.22;2096994;28;20716;-72
2021/01/30 02:14:23;;;;;;;88.13;46.70;;;;;;;-2.18;100.00;96926.75;2105489;28;20304;-73
2021/01/30 02:15:25;;;;;;;76.40;42.80;;;;;;;-2.24;100.00;96909.53;2096876;28;20230;-72
2021/01/30 02:16:37;;;;;;;85.80;44.63;;;;;;;-2.20;100.00;96915.00;2096985;28;20225;-72
2021/01/30 02:17:43;;;;;;;85.38;44.88;;;;;;;-2.19;100.00;96919.97;2094573;28;20226;-73
2021/01/30 02:18:49;;;;;;;81.80;44.15;;;;;;;-2.24;100.00;96906.16;2097046;28;20306;-72
2021/01/30 02:20:36;;;;;;;82.47;44.63;;;;;;;-2.21;100.00;96911.63;2097590;28;20222;-73
2021/01/30 02:22:10;;;;;;;77.38;41.83;;;;;;;-2.24;100.00;96903.53;2093316;28;20589;-75
2021/01/30 02:23:53;;;;;;;80.03;42.60;;;;;;;-2.24;100.00;96904.31;2096510;28;20229;-72
2021/01/30 02:25:27;;;;;;;86.32;41.92;;;;;;;-2.21;100.00;96905.59;2105128;28;20585;-72
2021/01/30 02:27:03;;;;;;;81.85;43.28;;;;;;;-2.18;100.00;96911.06;2098171;28;20246;-72
2021/01/30 02:28:23;;;;;;;81.30;42.65;;;;;;;-2.13;100.00;96898.00;2099419;28;20287;-72
2021/01/30 02:29:48;;;;;;;78.20;42.83;;;;;;;-2.18;100.00;96881.56;2098707;28;20313;-72
2021/01/30 02:31:01;;;;;;;84.93;44.78;;;;;;;-2.14;100.00;96893.06;2071133;28;20220;-73
2021/01/30 02:32:22;;;;;;;82.30;43.80;;;;;;;-2.09;100.00;96890.41;2096556;28;20226;-72
2021/01/30 02:33:58;;;;;;;87.43;45.47;;;;;;;-2.09;100.00;96891.19;2099080;28;20233;-73
2021/01/30 02:35:23;;;;;;;91.78;45.33;;;;;;;-2.11;100.00;96882.06;2095200;28;20229;-72
2021/01/30 02:36:30;;;;;;;85.60;45.53;;;;;;;-2.08;100.00;96894.59;2096513;28;20225;-72
2021/01/30 02:37:37;;;;;;;83.82;44.90;;;;;;;-2.14;100.00;96874.75;2097487;28;20225;-72
2021/01/30 02:38:43;;;;;;;88.35;46.95;;;;;;;-2.01;100.00;96889.84;2096255;28;20244;-73
2021/01/30 02:39:46;;;;;;;88.93;47.08;;;;;;;-2.04;100.00;96882.56;2088997;28;20223;-71
2021/01/30 02:40:50;;;;;;;84.10;45.78;;;;;;;-2.07;100.00;96878.66;2096780;28;20635;-72
2021/01/30 02:41:55;;;;;;;93.93;47.63;;;;;;;-2.06;100.00;96879.44;2097445;28;20612;-72
2021/01/30 02:42:59;;;;;;;89.40;47.00;;;;;;;-2.17;100.00;96859.59;2105310;28;20221;-72
2021/01/30 02:44:03;;;;;;;92.28;48.53;;;;;;;-2.13;100.00;96866.66;2105470;28;20228;-73
2021/01/30 02:45:09;;;;;;;95.43;46.58;;;;;;;-2.06;100.00;96866.38;2105747;28;20296;-73
2021/01/30 02:46:12;;;;;;;92.88;45.58;;;;;;;-2.01;100.00;96876.78;2096278;28;20307;-72
2021/01/30 02:47:15;;;;;;;95.32;47.45;;;;;;;-2.04;100.00;96874.72;2097177;28;20750;-73
2021/01/30 02:48:19;;;;;;;89.40;46.97;;;;;;;-2.14;100.00;96869.53;2105628;28;20221;-72
2021/01/30 02:49:24;;;;;;;85.47;48.47;;;;;;;-2.14;100.00;96866.94;2096646;28;20229;-73
2021/01/30 02:50:28;;;;;;;85.40;46.33;;;;;;;-2.20;100.00;96857.53;2088492;28;20310;-72
2021/01/30 02:51:34;;;;;;;85.85;46.50;;;;;;;-2.16;100.00;96871.66;2096844;28;20688;-72
2021/01/30 02:52:36;;;;;;;83.88;46.40;;;;;;;-2.13;100.00;96861.44;2105653;28;20241;-73
2021/01/30 02:53:41;;;;;;;89.57;47.67;;;;;;;-2.07;100.00;96870.81;2105149;28;20240;-75
2021/01/30 02:54:42;;;;;;;90.72;47.80;;;;;;;-2.07;100.00;96865.59;2105633;28;20802;-72
2021/01/30 02:55:44;;;;;;;91.60;47.85;;;;;;;-2.11;100.00;96864.56;2105550;28;20228;-73
2021/01/30 02:56:45;;;;;;;89.60;47.58;;;;;;;-2.09;100.00;96862.44;2096434;28;20245;-73
2021/01/30 02:57:47;;;;;;;86.77;47.57;;;;;;;-2.07;100.00;96864.81;2096632;28;20596;-73
2021/01/30 02:58:52;;;;;;;85.88;47.28;;;;;;;-2.03;100.00;96856.16;2096667;28;20751;-72
2021/01/30 02:59:55;;;;;;;93.68;48.75;;;;;;;-2.06;100.00;96866.38;2096744;28;20672;-73
2021/01/30 03:00:57;;;;;;;90.90;48.13;;;;;;;-2.04;100.00;96869.50;2105624;28;20225;-73
2021/01/30 03:01:59;;;;;;;86.68;47.50;;;;;;;-2.00;100.00;96862.66;2096260;28;20248;-73
2021/01/30 03:03:00;;;;;;;88.53;47.05;;;;;;;-1.96;100.00;96870.75;2096764;28;20222;-73
2021/01/30 03:04:03;;;;;;;92.13;46.83;;;;;;;-1.97;100.00;96870.00;2105506;28;20304;-73
2021/01/30 03:05:08;;;;;;;89.35;47.40;;;;;;;-2.02;100.00;96860.31;2105285;28;20316;-72
2021/01/30 03:06:18;;;;;;;81.68;45.55;;;;;;;-1.93;100.00;96865.78;2094299;28;20222;-73
2021/01/30 03:07:42;;;;;;;89.50;47.55;;;;;;;-2.00;100.00;96865.28;2096620;28;20229;-73
2021/01/30 03:08:46;;;;;;;89.85;47.75;;;;;;;-2.02;100.00;96870.00;2097917;28;20222;-73
2021/01/30 03:09:51;;;;;;;89.57;48.78;;;;;;;-2.04;100.00;96865.06;2097258;28;20553;-72
2021/01/30 03:10:57;;;;;;;93.15;48.67;;;;;;;-2.02;100.00;96862.16;2098709;28;20222;-75
2021/01/30 03:12:05;;;;;;;90.28;48.17;;;;;;;-1.95;100.00;96865.25;2096091;28;20305;-72
2021/01/30 03:13:11;;;;;;;87.85;47.78;;;;;;;-1.99;100.00;96859.03;2096411;28;20696;-74
2021/01/30 03:14:16;;;;;;;88.03;46.75;;;;;;;-1.98;100.00;96862.44;2096118;28;20229;-73
2021/01/30 03:15:23;;;;;;;96.40;48.33;;;;;;;-2.11;100.00;96855.94;2097209;28;21004;-73
2021/01/30 03:16:27;;;;;;;87.90;47.75;;;;;;;-2.06;100.00;96863.75;2095796;28;20237;-73
2021/01/30 03:17:31;;;;;;;86.53;47.15;;;;;;;-2.06;100.00;96864.53;2096763;28;20248;-72
2021/01/30 03:18:33;;;;;;;92.72;48.85;;;;;;;-2.06;100.00;96858.53;2105401;28;20621;-73
2021/01/30 03:19:35;;;;;;;94.18;47.08;;;;;;;-2.06;100.00;96855.94;2095852;28;20248;-73
2021/01/30 03:20:38;;;;;;;89.82;47.88;;;;;;;-2.06;100.00;96851.47;2096535;28;20392;-73
2021/01/30 03:21:41;;;;;;;93.10;48.15;;;;;;;-2.12;100.00;96847.31;2095982;28;20688;-73
2021/01/30 03:22:43;;;;;;;95.68;48.63;;;;;;;-2.02;100.00;96851.72;2096764;28;20336;-72
2021/01/30 03:23:45;;;;;;;91.75;50.05;;;;;;;-2.07;100.00;96846.53;2105327;28;20576;-74
2021/01/30 03:24:45;;;;;;;88.63;48.13;;;;;;;-2.04;100.00;96854.59;2105378;28;20579;-73
2021/01/30 03:25:47;;;;;;;93.43;49.33;;;;;;;-2.05;100.00;96852.25;2105272;28;20217;-73
2021/01/30 03:26:48;;;;;;;90.82;48.08;;;;;;;-2.03;100.00;96839.69;2105417;28;20253;-73
2021/01/30 03:27:50;;;;;;;98.13;48.53;;;;;;;-1.96;100.00;96849.88;2096259;28;20283;-72
2021/01/30 03:28:51;;;;;;;96.80;49.97;;;;;;;-1.96;100.00;96848.03;2096609;28;20723;-72
2021/01/30 03:29:53;;;;;;;93.53;50.73;;;;;;;-2.03;100.00;96850.94;2093837;28;20592;-74
2021/01/30 03:30:54;;;;;;;101.30;49.67;;;;;;;-1.93;100.00;96850.09;2096359;28;20222;-73
2021/01/30 03:31:55;;;;;;;100.32;50.33;;;;;;;-1.96;100.00;96834.19;2096322;28;20222;-72
2021/01/30 03:32:56;;;;;;;87.45;47.22;;;;;;;-1.89;100.00;96842.50;2087164;28;20218;-73
2021/01/30 03:33:57;;;;;;;87.90;48.10;;;;;;;-1.90;100.00;96846.19;2096514;28;20256;-72
2021/01/30 03:34:59;;;;;;;90.85;48.10;;;;;;;-1.93;100.00;96841.47;2097160;28;20253;-72
2021/01/30 03:36:00;;;;;;;91.25;49.75;;;;;;;-1.97;100.00;96838.63;2096059;28;20222;-73
2021/01/30 03:37:01;;;;;;;98.40;48.53;;;;;;;-1.95;100.00;96838.34;2096508;28;20575;-73
2021/01/30 03:38:03;;;;;;;97.37;50.47;;;;;;;-1.90;100.00;96839.13;2096237;28;20244;-72
2021/01/30 03:39:06;;;;;;;92.38;49.78;;;;;;;-1.85;100.00;96840.91;2088162;28;20233;-72
2021/01/30 03:40:09;;;;;;;93.60;48.97;;;;;;;-1.88;100.00;96826.56;2087282;28;20696;-75
2021/01/30 03:41:10;;;;;;;96.97;50.25;;;;;;;-1.92;100.00;96824.75;2096631;28;20596;-72
2021/01/30 03:42:11;;;;;;;97.20;49.70;;;;;;;-1.94;100.00;96830.25;2095046;28;20233;-73
2021/01/30 03:43:12;;;;;;;93.07;47.92;;;;;;;-1.94;100.00;96822.41;2096285;28;20226;-73
2021/01/30 03:44:15;;;;;;;101.03;50.53;;;;;;;-2.00;100.00;96816.44;2096032;28;20245;-73
2021/01/30 03:45:21;;;;;;;92.30;50.20;;;;;;;-1.85;100.00;96828.63;2096611;28;20217;-73
2021/01/30 03:46:22;;;;;;;96.03;49.15;;;;;;;-1.94;100.00;96821.63;2095358;28;20229;-73
2021/01/30 03:47:23;;;;;;;86.63;48.87;;;;;;;-1.84;100.00;96832.78;2096146;28;20226;-73
2021/01/30 03:48:25;;;;;;;95.32;48.55;;;;;;;-1.90;100.00;96823.44;2105079;28;20316;-73
2021/01/30 03:49:26;;;;;;;89.28;47.65;;;;;;;-1.84;100.00;96827.56;2096222;28;20242;-72
2021/01/30 03:50:27;;;;;;;99.80;50.27;;;;;;;-1.91;100.00;96821.88;2087789;28;20230;-73
2021/01/30 03:51:28;;;;;;;97.55;49.08;;;;;;;-1.89;100.00;96829.44;2088195;28;20273;-72
2021/01/30 03:52:30;;;;;;;96.37;49.20;;;;;;;-1.90;100.00;96826.06;2096361;28;20252;-73
2021/01/30 03:53:31;;;;;;;96.35;50.05;;;;;;;-1.90;100.00;96826.06;2105134;28;20222;-73
2021/01/30 03:54:32;;;;;;;95.57;49.55;;;;;;;-1.80;100.00;96828.59;2105137;28;20334;-74
2021/01/30 03:55:33;;;;;;;93.63;49.17;;;;;;;-1.80;100.00;96818.16;2095368;28;20300;-74
2021/01/30 03:56:35;;;;;;;91.30;49.20;;;;;;;-1.71;100.00;96826.19;2087834;28;20219;-73
2021/01/30 03:57:36;;;;;;;99.22;48.10;;;;;;;-1.68;100.00;96836.09;2096454;28;20690;-73
2021/01/30 03:58:38;;;;;;;93.88;49.03;;;;;;;-1.68;100.00;96817.03;2096491;28;20218;-74
2021/01/30 03:59:38;;;;;;;92.70;48.83;;;;;;;-1.72;100.00;96825.41;2096054;28;20623;-73
2021/01/30 04:00:40;;;;;;;87.27;48.13;;;;;;;-1.76;100.00;96815.75;2096359;28;20230;-72
2021/01/30 04:01:40;;;;;;;94.38;49.72;;;;;;;-1.77;100.00;96807.13;2096828;28;20230;-73
2021/01/30 04:02:42;;;;;;;93.17;50.33;;;;;;;-1.74;100.00;96813.66;2095608;28;22545;-73
2021/01/30 04:03:42;;;;;;;98.93;50.60;;;;;;;-1.85;100.00;96802.50;2087952;28;20739;-72
2021/01/30 04:04:44;;;;;;;92.23;50.67;;;;;;;-1.79;100.00;96801.41;2095761;28;20602;-73
2021/01/30 04:05:45;;;;;;;89.25;50.58;;;;;;;-1.81;100.00;96800.91;2105092;28;20337;-74
2021/01/30 04:06:47;;;;;;;101.23;51.30;;;;;;;-1.83;100.00;96797.00;2105071;28;20312;-73
2021/01/30 04:07:48;;;;;;;95.68;51.33;;;;;;;-1.85;100.00;96794.66;2095914;28;20229;-73
2021/01/30 04:08:51;;;;;;;96.85;50.22;;;;;;;-1.78;100.00;96799.56;2096149;28;20217;-73
2021/01/30 04:09:51;;;;;;;89.78;48.45;;;;;;;-1.81;100.00;96785.22;2094121;28;20221;-72
2021/01/30 04:10:53;;;;;;;93.10;49.83;;;;;;;-1.75;100.00;96809.47;2087408;28;20223;-73
2021/01/30 04:11:54;;;;;;;92.90;48.47;;;;;;;-1.76;100.00;96803.47;2096104;28;20248;-72
2021/01/30 04:12:56;;;;;;;92.13;49.60;;;;;;;-1.78;100.00;96794.34;2104930;28;20262;-74
2021/01/30 04:13:58;;;;;;;90.07;48.28;;;;;;;-1.72;100.00;96809.72;2105213;28;20233;-72
2021/01/30 04:15:00;;;;;;;88.70;48.80;;;;;;;-1.74;100.00;96801.41;2095928;28;20230;-73
2021/01/30 04:16:00;;;;;;;95.55;50.20;;;;;;;-1.76;100.00;96808.69;2087722;28;20684;-73
2021/01/30 04:17:03;;;;;;;101.97;50.60;;;;;;;-1.75;100.00;96802.41;2096003;28;20597;-74
2021/01/30 04:18:04;;;;;;;88.78;48.15;;;;;;;-1.71;100.00;96800.06;2105113;28;20703;-73
2021/01/30 04:19:05;;;;;;;94.07;49.58;;;;;;;-1.75;100.00;96799.81;2095981;28;20222;-73
2021/01/30 04:20:08;;;;;;;99.13;49.00;;;;;;;-1.66;100.00;96792.16;2087829;28;20715;-73
2021/01/30 04:21:09;;;;;;;92.22;49.28;;;;;;;-1.72;100.00;96790.66;2095992;28;20551;-73
2021/01/30 04:22:10;;;;;;;83.75;47.47;;;;;;;-1.69;100.00;96792.72;2096004;28;20308;-74
2021/01/30 04:23:11;;;;;;;89.97;48.63;;;;;;;-1.64;100.00;96792.69;2096036;28;20221;-72
2021/01/30 04:24:13;;;;;;;90.97;49.92;;;;;;;-1.62;100.00;96800.25;2104968;28;20225;-73
2021/01/30 04:25:16;;;;;;;91.30;48.33;;;;;;;-1.63;100.00;96786.41;2104928;28;20225;-73
2021/01/30 04:26:19;;;;;;;96.97;49.05;;;;;;;-1.64;100.00;96792.69;2105097;28;20214;-73
2021/01/30 04:27:20;;;;;;;90.65;48.80;;;;;;;-1.71;100.00;96789.59;2096117;28;20226;-73
2021/01/30 04:28:21;;;;;;;88.68;48.05;;;;;;;-1.78;100.00;96786.50;2096096;28;20313;-73
2021/01/30 04:29:22;;;;;;;93.03;50.07;;;;;;;-1.74;100.00;96793.56;2098564;28;20225;-74
2021/01/30 04:30:25;;;;;;;93.05;49.05;;;;;;;-1.87;100.00;96786.31;2096752;28;20680;-72
2021/01/30 04:31:26;;;;;;;87.72;48.78;;;;;;;-1.88;100.00;96792.59;2095692;28;20234;-73
2021/01/30 04:32:27;;;;;;;94.22;49.88;;;;;;;-1.84;100.00;96801.44;2096138;28;20297;-72
2021/01/30 04:33:28;;;;;;;89.67;50.23;;;;;;;-1.82;100.00;96794.13;2095623;28;20278;-73
2021/01/30 04:34:29;;;;;;;93.43;49.25;;;;;;;-1.85;100.00;96783.41;2095294;28;20664;-72
2021/01/30 04:35:34;;;;;;;96.50;50.57;;;;;;;-1.84;100.00;96788.38;2104343;28;20286;-73
2021/01/30 04:36:35;;;;;;;96.68;48.90;;;;;;;-1.85;100.00;96776.34;2096968;28;20228;-72
2021/01/30 04:37:36;;;;;;;92.63;47.50;;;;;;;-1.83;100.00;96776.09;2096653;28;20222;-74
2021/01/30 04:38:37;;;;;;;91.77;48.43;;;;;;;-1.79;100.00;96775.28;2095364;28;20275;-74
2021/01/30 04:39:39;;;;;;;91.32;48.40;;;;;;;-1.72;100.00;96780.22;2096140;28;20223;-74
2021/01/30 04:40:42;;;;;;;91.55;49.10;;;;;;;-1.72;100.00;96778.38;2095437;28;20226;-73
2021/01/30 04:41:54;;;;;;;94.38;47.55;;;;;;;-1.77;100.00;96754.88;2095987;28;20639;-73
2021/01/30 04:43:02;;;;;;;92.05;48.67;;;;;;;-1.69;100.00;96757.97;2098163;28;20222;-73
2021/01/30 04:44:07;;;;;;;87.22;47.45;;;;;;;-1.67;100.00;96769.69;2095930;28;20225;-73
2021/01/30 04:45:14;;;;;;;93.75;49.25;;;;;;;-1.69;100.00;96771.03;2087709;28;20623;-73
2021/01/30 04:46:19;;;;;;;96.45;47.88;;;;;;;-1.73;100.00;96768.19;2095992;28;20221;-73
2021/01/30 04:47:29;;;;;;;91.53;48.95;;;;;;;-1.65;100.00;96769.41;2096885;28;20246;-73
2021/01/30 04:48:38;;;;;;;92.28;48.20;;;;;;;-1.73;100.00;96762.97;2095598;28;20234;-73
2021/01/30 04:49:48;;;;;;;97.53;50.92;;;;;;;-1.76;100.00;96766.09;2096852;28;20710;-73